Time;durP1;ratioP1;P1;durP2;ratioP2;P2;SDS_P1;SDS_P2;PMS_P1;PMS_P2;Temp;Humidity;BMP_temperature;BMP_pressure;BME280_temperature;BME280_humidity;BME280_pressure;Samples;Min_cycle;Max_cycle;Signal;HPM_P1;HPM_P2
2022/12/02 00:03:02;;;;;;;;;11.00;10.00;;;;;8.05;89.98;100631.00;146624;674;46014;-72
2022/12/02 00:06:03;;;;;;;;;15.50;13.50;;;;;11.05;90.13;101152.31;146629;611;45010;-72
2022/12/02 00:08:57;;;;;;;;;13.00;11.50;;;;;11.08;90.65;101152.50;146629;564;45014;-73
2022/12/02 00:11:51;;;;;;;;;10.75;9.50;;;;;11.09;90.46;101151.69;146621;597;45020;-72
2022/12/02 00:14:43;;;;;;;;;12.00;10.75;;;;;11.11;90.70;101164.75;146603;573;48016;-73
2022/12/02 00:17:35;;;;;;;;;10.50;9.50;;;;;11.10;90.07;101165.56;146605;662;46020;-73
2022/12/02 00:20:27;;;;;;;;;9.25;8.75;;;;;11.09;89.74;101172.47;146606;603;46014;-73
2022/12/02 00:23:20;;;;;;;;;7.50;6.75;;;;;10.98;88.14;101176.16;146607;569;46020;-73
2022/12/02 00:26:14;;;;;;;;;8.25;5.75;;;;;10.80;87.43;101183.75;146605;566;46013;-73
2022/12/02 00:29:15;;;;;;;;;10.00;6.00;;;;;10.69;87.65;101187.47;146607;614;46020;-74
2022/12/02 00:32:14;;;;;;;;;9.75;8.50;;;;;10.64;88.03;101192.38;146603;675;46012;-76
2022/12/02 00:35:09;;;;;;;;;9.25;8.75;;;;;10.63;88.27;101200.97;146607;581;46010;-75
2022/12/02 00:38:05;;;;;;;;;13.00;10.50;;;;;10.58;88.15;101199.78;146604;673;46031;-74
2022/12/02 00:40:58;;;;;;;;;13.00;10.00;;;;;10.57;88.50;101200.59;146606;593;46011;-70
2022/12/02 00:47:09;;;;;;;;;9.75;8.75;;;;;10.56;88.73;101210.88;146605;626;46020;-77
2022/12/02 00:50:13;;;;;;;;;8.75;8.50;;;;;10.52;88.52;101219.28;146603;602;46017;-74
2022/12/02 00:53:11;;;;;;;;;11.75;9.00;;;;;10.45;88.39;101214.53;146604;598;46020;-73
2022/12/02 00:56:07;;;;;;;;;13.50;10.75;;;;;10.40;88.48;101216.84;146604;597;46012;-74
2022/12/02 00:59:20;;;;;;;;;;;;;;;;;;;;;
2022/12/02 01:02:28;;;;;;;;;21.25;17.00;;;;;7.16;88.69;100691.69;146592;623;48026;-72
2022/12/02 01:05:26;;;;;;;;;10.25;9.25;;;;;10.14;89.19;101225.62;146608;574;46014;-72
2022/12/02 01:08:31;;;;;;;;;11.50;11.00;;;;;10.15;89.46;101223.09;146605;570;45016;-72
2022/12/02 01:11:29;;;;;;;;;14.00;13.75;;;;;10.23;89.91;101222.69;146605;564;46021;-72
2022/12/02 01:14:29;;;;;;;;;14.25;12.50;;;;;10.30;89.93;101219.69;146604;589;46012;-72
2022/12/02 01:17:34;;;;;;;;;14.00;11.75;;;;;10.35;89.98;101226.94;146604;610;46020;-72
2022/12/02 01:20:32;;;;;;;;;14.75;14.25;;;;;10.38;89.83;101231.44;146600;598;46016;-72
2022/12/02 01:23:29;;;;;;;;;18.50;15.50;;;;;10.38;89.51;101236.63;146602;568;47010;-72
2022/12/02 01:26:25;;;;;;;;;20.75;18.75;;;;;10.40;89.84;101230.72;146601;588;46017;-72
2022/12/02 01:29:23;;;;;;;;;16.75;14.25;;;;;10.42;89.58;101235.09;146606;578;46010;-74
2022/12/02 01:32:18;;;;;;;;;16.00;15.75;;;;;10.38;88.88;101232.31;146603;596;46016;-74
2022/12/02 01:35:12;;;;;;;;;17.50;16.50;;;;;10.33;88.67;101235.44;146604;569;46021;-73
2022/12/02 01:38:06;;;;;;;;;12.75;10.75;;;;;10.23;88.33;101233.06;146604;632;46012;-74
2022/12/02 01:40:59;;;;;;;;;13.25;13.25;;;;;10.13;87.99;101237.69;146607;611;46010;-74
2022/12/02 01:44:04;;;;;;;;;11.00;9.50;;;;;10.02;87.60;101240.41;146605;571;46016;-75
2022/12/02 01:47:03;;;;;;;;;12.75;11.00;;;;;9.93;87.85;101244.22;146604;590;46011;-76
2022/12/02 01:49:56;;;;;;;;;8.00;7.00;;;;;9.86;87.45;101243.75;146602;616;46913;-76
2022/12/02 01:52:53;;;;;;;;;10.75;8.25;;;;;9.75;87.32;101242.16;146606;616;46010;-73
2022/12/02 01:56:16;;;;;;;;;10.75;9.75;;;;;9.66;87.25;101245.09;146604;573;46913;-74
2022/12/02 01:59:18;;;;;;;;;10.50;8.75;;;;;9.57;87.57;101241.94;146607;588;46020;-78
2022/12/02 02:02:35;;;;;;;;;11.50;10.75;;;;;9.48;87.60;101245.72;146602;614;46016;-74
2022/12/02 02:05:33;;;;;;;;;11.50;10.75;;;;;9.40;87.57;101248.59;146604;621;46020;-71
2022/12/02 02:08:27;;;;;;;;;11.25;9.50;;;;;9.32;87.95;101255.88;146603;581;46016;-76
2022/12/02 02:11:39;;;;;;;;;8.50;8.00;;;;;9.18;88.29;101243.75;146607;570;46020;-76
2022/12/02 02:14:37;;;;;;;;;14.00;13.00;;;;;9.21;88.37;101255.19;146601;618;46913;-75
2022/12/02 02:17:29;;;;;;;;;10.00;9.00;;;;;9.17;88.16;101266.12;146608;582;46010;-75
2022/12/02 02:20:39;;;;;;;;;10.75;8.50;;;;;7.06;88.17;100904.19;146603;571;46016;-75
2022/12/02 02:23:35;;;;;;;;;11.00;9.75;;;;;9.12;88.21;101274.37;146606;621;46010;-75
2022/12/02 02:26:37;;;;;;;;;10.75;8.00;;;;;9.09;88.08;101279.34;146606;601;46014;-75
2022/12/02 02:29:33;;;;;;;;;7.25;7.00;;;;;9.02;88.04;101278.94;146605;569;46014;-76
2022/12/02 02:32:25;;;;;;;;;7.75;6.00;;;;;8.98;88.21;101283.84;146602;581;46017;-74
2022/12/02 02:35:41;;;;;;;;;;;;;;;;;;;;;
2022/12/02 02:38:48;;;;;;;;;7.25;7.25;;;;;8.95;88.41;101283.63;146608;647;46013;-73
2022/12/02 02:41:53;;;;;;;;;8.50;6.75;;;;;5.85;87.57;100755.81;146607;584;46010;-73
2022/12/02 02:44:59;;;;;;;;;5.75;5.75;;;;;8.89;88.19;101298.75;146604;564;46014;-72
2022/12/02 02:47:58;;;;;;;;;7.00;6.25;;;;;8.85;87.98;101295.06;146607;564;46021;-75
2022/12/02 02:51:06;;;;;;;;;8.00;6.75;;;;;8.81;87.90;101297.31;146606;588;46016;-75
2022/12/02 02:54:11;;;;;;;;;9.25;8.00;;;;;8.79;88.34;101300.69;146607;566;46020;-75
2022/12/02 02:57:03;;;;;;;;;6.25;5.50;;;;;8.74;88.11;101301.19;146604;579;46016;-75
2022/12/02 03:00:32;;;;;;;;;5.25;5.25;;;;;8.73;88.16;101312.31;146610;649;46010;-75
2022/12/02 03:03:44;;;;;;;;;5.75;5.75;;;;;5.60;88.10;100763.47;146605;616;46012;-75
2022/12/02 03:06:52;;;;;;;;;5.75;5.75;;;;;6.01;87.96;100835.91;146607;681;46010;-72
2022/12/02 03:09:56;;;;;;;;;6.00;6.00;;;;;8.67;87.99;101315.37;146601;619;46017;-74
2022/12/02 03:12:59;;;;;;;;;7.00;4.75;;;;;8.64;88.08;101315.19;146612;577;46020;-73
2022/12/02 03:16:14;;;;;;;;;5.75;5.75;;;;;8.59;87.81;101313.94;146612;731;46014;-73
2022/12/02 03:19:09;;;;;;;;;7.00;6.00;;;;;8.55;87.92;101322.28;146615;616;46010;-73
2022/12/02 03:22:19;;;;;;;;;5.50;5.50;;;;;8.51;87.95;101325.47;146610;565;46012;-78
2022/12/02 03:25:21;;;;;;;;;3.75;3.75;;;;;8.46;87.71;101326.84;146616;715;46010;-76
2022/12/02 03:28:16;;;;;;;;;4.00;4.00;;;;;8.41;87.87;101330.78;146610;587;46016;-77
2022/12/02 03:31:24;;;;;;;;;5.50;5.25;;;;;8.38;87.82;101333.09;146607;612;47010;-77
2022/12/02 03:34:20;;;;;;;;;5.75;5.75;;;;;8.31;87.93;101331.78;146610;581;46016;-76
2022/12/02 03:37:16;;;;;;;;;8.50;5.75;;;;;8.27;88.01;101338.44;146611;606;46015;-79
2022/12/02 03:40:19;;;;;;;;;6.50;5.00;;;;;8.22;88.01;101337.19;146614;629;45017;-74
2022/12/02 03:43:19;;;;;;;;;6.75;5.75;;;;;8.19;87.90;101338.69;146610;581;46915;-75
2022/12/02 03:46:16;;;;;;;;;5.75;5.25;;;;;8.16;87.95;101325.53;146610;576;46915;-75
2022/12/02 03:49:13;;;;;;;;;9.25;6.25;;;;;8.16;88.14;101330.72;146614;584;46010;-74
2022/12/02 03:52:11;;;;;;;;;7.75;6.50;;;;;8.17;88.33;101332.53;146612;603;46012;-74
2022/12/02 03:55:03;;;;;;;;;7.50;7.00;;;;;8.21;88.49;101331.94;146613;653;46010;-75
2022/12/02 03:58:14;;;;;;;;;8.50;7.75;;;;;5.09;88.02;100781.25;146612;606;46012;-74
2022/12/02 04:01:11;;;;;;;;;8.75;8.75;;;;;8.21;88.47;101327.66;146610;570;46021;-75
2022/12/02 04:04:22;;;;;;;;;;;;;;;;;;;;;
2022/12/02 04:07:21;;;;;;;;;9.00;8.75;;;;;8.20;88.01;101330.16;146612;603;46021;-75
2022/12/02 04:10:29;;;;;;;;;9.00;8.00;;;;;8.20;88.22;101337.91;146614;586;46012;-76
2022/12/02 04:13:24;;;;;;;;;8.50;8.50;;;;;8.18;87.74;101335.19;146610;647;46010;-77
2022/12/02 04:16:37;;;;;;;;;5.00;5.00;;;;;5.05;87.03;100802.38;146606;583;46016;-76
2022/12/02 04:19:29;;;;;;;;;3.75;3.75;;;;;8.08;87.34;101343.09;146608;597;46010;-77
2022/12/02 04:22:29;;;;;;;;;6.25;4.75;;;;;8.05;87.83;101348.03;146603;572;47017;-77
2022/12/02 04:25:37;;;;;;;;;6.00;6.00;;;;;4.53;87.47;100726.56;146606;565;46010;-77
2022/12/02 04:28:32;;;;;;;;;9.00;6.50;;;;;8.03;88.30;101340.16;146606;589;46016;-77
2022/12/02 04:31:27;;;;;;;;;7.25;5.75;;;;;8.04;88.20;101354.00;146608;621;46014;-78
2022/12/02 04:34:31;;;;;;;;;5.00;4.00;;;;;8.05;88.27;101346.34;146605;599;46014;-77
2022/12/02 04:37:32;;;;;;;;;4.25;4.25;;;;;8.07;88.90;101347.38;146605;651;46020;-78
2022/12/02 04:40:39;;;;;;;;;;;;;;;;;;;;;
2022/12/02 04:43:34;;;;;;;;;6.50;5.75;;;;;8.14;88.67;101355.56;146610;581;45020;-78
2022/12/02 04:46:33;;;;;;;;;14.50;11.50;;;;;8.19;88.99;101361.94;146603;579;46017;-79
2022/12/02 04:49:38;;;;;;;;;;;;;;;;;;;;;
2022/12/02 04:52:38;;;;;;;;;7.00;7.00;;;;;8.17;88.34;101379.91;146605;564;46014;-77
2022/12/02 04:55:35;;;;;;;;;5.00;4.00;;;;;8.16;88.39;101384.97;146608;569;46010;-77
2022/12/02 04:58:31;;;;;;;;;8.00;6.00;;;;;6.69;88.18;101145.59;146606;589;46017;-73
2022/12/02 05:01:28;;;;;;;;;5.50;5.50;;;;;8.10;88.43;101403.53;146607;577;46020;-73
2022/12/02 05:04:31;;;;;;;;;10.25;9.25;;;;;8.09;88.46;101407.75;146603;614;46012;-74
2022/12/02 05:07:28;;;;;;;;;8.25;6.00;;;;;8.07;88.72;101409.38;146605;673;46021;-74
2022/12/02 05:10:28;;;;;;;;;7.00;6.00;;;;;8.09;88.94;101412.03;146604;594;46016;-74
2022/12/02 05:13:23;;;;;;;;;8.00;8.00;;;;;8.12;88.94;101420.00;146607;569;46021;-72
2022/12/02 05:16:19;;;;;;;;;5.75;5.50;;;;;8.12;88.79;101420.00;146605;597;46914;-73
2022/12/02 05:19:17;;;;;;;;;6.25;5.50;;;;;8.12;88.75;101411.38;146609;552;46010;-80
2022/12/02 05:22:20;;;;;;;;;7.50;7.25;;;;;8.13;88.81;101418.31;146604;616;46017;-79
2022/12/02 05:25:15;;;;;;;;;11.25;10.25;;;;;8.13;88.95;101423.47;146609;569;46010;-75
2022/12/02 05:28:16;;;;;;;;;14.50;13.00;;;;;8.07;88.63;101423.97;146602;579;46017;-80
2022/12/02 05:31:18;;;;;;;;;;;;;;;;;;;;;
2022/12/02 05:34:22;;;;;;;;;12.00;12.00;;;;;8.07;88.63;101423.97;146601;607;46016;-71
2022/12/02 05:37:24;;;;;;;;;9.25;7.25;;;;;8.06;88.83;101428.22;146604;696;46010;-72
2022/12/02 05:40:31;;;;;;;;;6.50;6.00;;;;;4.88;88.16;100887.59;146604;579;46014;-73
2022/12/02 05:43:30;;;;;;;;;9.50;7.75;;;;;8.09;89.04;101432.69;146600;688;47010;-74
2022/12/02 05:46:26;;;;;;;;;10.50;9.00;;;;;8.12;88.99;101440.69;146604;675;46915;-75
2022/12/02 05:49:31;;;;;;;;;12.00;10.00;;;;;8.14;88.83;101451.13;146608;599;46030;-73
2022/12/02 05:52:54;;;;;;;;;10.75;9.00;;;;;5.06;88.54;100904.41;146603;626;46016;-75
2022/12/02 05:55:55;;;;;;;;;18.25;14.00;;;;;8.22;89.10;101461.22;146606;614;46020;-76
2022/12/02 05:59:26;;;;;;;;;14.00;10.00;;;;;8.25;88.96;101458.84;146603;567;46017;-72
2022/12/02 06:02:39;;;;;;;;;17.00;15.50;;;;;8.32;89.00;101466.28;146604;679;46020;-72
2022/12/02 06:05:57;;;;;;;;;20.75;18.50;;;;;8.45;89.48;101468.09;146604;572;46012;-69
2022/12/02 06:09:22;;;;;;;;;13.00;11.75;;;;;8.64;89.73;101478.03;146605;627;46020;-70
2022/12/02 06:12:25;;;;;;;;;20.25;16.25;;;;;8.75;89.48;101476.19;146607;694;47015;-69
2022/12/02 06:15:20;;;;;;;;;21.75;18.00;;;;;8.91;89.35;101479.09;146615;571;46020;-70
2022/12/02 06:18:49;;;;;;;;;16.75;15.50;;;;;7.81;90.61;101218.97;146608;617;46913;-71
2022/12/02 06:21:47;;;;;;;;;26.00;21.00;;;;;10.16;92.93;101486.66;146612;596;46020;-70
2022/12/02 06:24:51;;;;;;;;;20.50;16.25;;;;;11.03;93.13;101480.94;146612;602;46012;-70
2022/12/02 06:27:53;;;;;;;;;21.75;17.25;;;;;11.86;89.84;101485.00;146609;609;48021;-70
2022/12/02 06:30:46;;;;;;;;;22.50;19.75;;;;;12.45;84.33;101483.19;146607;575;46016;-70
2022/12/02 06:33:55;;;;;;;;;;;;;;;;;;;;;
2022/12/02 06:36:51;;;;;;;;;27.75;25.25;;;;;13.08;78.35;101485.72;146606;581;46016;-71
2022/12/02 06:39:52;;;;;;;;;29.50;24.25;;;;;13.22;77.67;101478.66;146612;608;46020;-71
2022/12/02 06:43:25;;;;;;;;;38.50;31.75;;;;;13.55;77.94;101484.72;146610;592;47013;-71
2022/12/02 06:46:31;;;;;;;;;32.00;27.75;;;;;11.13;75.63;101029.91;146612;570;46020;-71
2022/12/02 06:49:42;;;;;;;;;39.50;34.50;;;;;14.01;73.33;101507.91;146611;654;46017;-71
2022/12/02 06:52:46;;;;;;;;;60.00;47.25;;;;;14.17;73.69;101499.13;146615;664;45020;-71
2022/12/02 06:56:00;;;;;;;;;72.75;60.75;;;;;14.43;72.12;101508.25;146613;690;46012;-71
2022/12/02 06:59:26;;;;;;;;;72.25;58.25;;;;;12.06;74.26;101008.78;146616;632;46010;-69
2022/12/02 07:02:39;;;;;;;;;70.75;55.75;;;;;15.44;73.92;101518.13;146609;597;46016;-70
2022/12/02 07:05:36;;;;;;;;;74.00;56.50;;;;;16.01;71.23;101528.44;146614;572;46010;-70
2022/12/02 07:08:35;;;;;;;;;55.75;43.50;;;;;16.40;68.53;101524.84;146611;591;46034;-71
2022/12/02 07:15:12;;;;;;;;;43.25;34.00;;;;;13.64;67.62;100971.84;146610;619;46012;-72
2022/12/02 07:18:45;;;;;;;;;40.50;34.50;;;;;13.33;69.08;100902.84;146614;576;46010;-72
2022/12/02 07:21:42;;;;;;;;;36.50;32.00;;;;;17.00;66.79;101521.97;146610;591;46911;-71
2022/12/02 07:24:40;;;;;;;;;42.75;36.50;;;;;17.12;66.24;101520.66;146613;665;46020;-71
2022/12/02 07:27:47;;;;;;;;;41.75;34.00;;;;;17.28;66.44;101515.13;146611;667;46013;-71
2022/12/02 07:30:48;;;;;;;;;44.50;34.00;;;;;17.34;64.35;101517.97;146613;595;46020;-71
2022/12/02 07:33:45;;;;;;;;;34.50;31.75;;;;;17.30;63.92;101518.72;146610;573;46016;-71
2022/12/02 07:36:43;;;;;;;;;41.75;33.00;;;;;17.17;63.53;101520.00;146612;572;46014;-72
2022/12/02 07:39:44;;;;;;;;;36.25;31.00;;;;;17.03;64.66;101524.72;146609;569;47012;-71
2022/12/02 07:42:42;;;;;;;;;40.50;34.00;;;;;16.91;64.29;101521.63;146610;571;46021;-72
2022/12/02 07:45:41;;;;;;;;;38.75;32.00;;;;;16.74;65.24;101528.81;146614;624;46012;-71
2022/12/02 07:48:41;;;;;;;;;34.75;31.75;;;;;16.58;65.23;101524.69;146613;656;47010;-72
2022/12/02 07:51:46;;;;;;;;;37.00;29.00;;;;;16.40;65.82;101527.47;146609;574;46016;-72
2022/12/02 07:54:39;;;;;;;;;39.00;32.25;;;;;16.23;67.19;101530.22;146615;600;47010;-71
2022/12/02 07:57:44;;;;;;;;;;;;;;;;;;;;;
2022/12/02 08:00:40;;;;;;;;;16.50;15.25;;;;;16.04;69.28;101537.31;146614;706;46020;-72
2022/12/02 08:03:42;;;;;;;;;17.75;14.50;;;;;16.04;68.80;101541.66;146611;621;46013;-72
2022/12/02 08:06:46;;;;;;;;;;;;;;;;;;;;;
2022/12/02 08:09:43;;;;;;;;;20.00;16.00;;;;;16.13;68.17;101547.28;146603;593;46016;-72
2022/12/02 08:12:35;;;;;;;;;7.00;5.00;;;;;16.19;69.05;101549.25;146614;625;46011;-72
2022/12/02 08:15:33;;;;;;;;;16.50;12.00;;;;;16.22;67.10;101552.88;146610;603;46016;-72
2022/12/02 08:18:26;;;;;;;;;13.00;13.00;;;;;16.23;68.21;101548.53;146610;678;46020;-72
2022/12/02 08:21:20;;;;;;;;;15.50;12.25;;;;;16.27;69.03;101551.38;146607;592;46016;-73
2022/12/02 08:24:12;;;;;;;;;15.75;12.00;;;;;16.34;67.77;101544.66;146614;635;46010;-72
2022/12/02 08:27:10;;;;;;;;;18.50;17.00;;;;;16.45;68.69;101542.47;146608;653;46014;-72
2022/12/02 08:30:02;;;;;;;;;23.50;19.75;;;;;16.54;68.65;101537.59;146612;586;46020;-72
2022/12/02 08:33:08;;;;;;;;;20.50;19.25;;;;;16.67;67.81;101542.50;146607;595;47017;-72
2022/12/02 08:36:14;;;;;;;;;15.50;13.75;;;;;16.76;67.35;101529.81;146610;628;46021;-72
2022/12/02 08:39:12;;;;;;;;;16.00;15.00;;;;;16.75;67.10;101541.09;146612;574;46012;-72
2022/12/02 08:42:04;;;;;;;;;14.25;12.00;;;;;16.66;66.79;101534.56;146614;674;46010;-72
2022/12/02 08:45:05;;;;;;;;;14.00;13.25;;;;;16.57;68.06;101529.84;146611;603;45914;-72
2022/12/02 08:48:00;;;;;;;;;17.75;14.25;;;;;16.50;69.27;101523.50;146615;580;46011;-72
2022/12/02 08:50:59;;;;;;;;;15.25;15.25;;;;;16.50;68.62;101528.72;146611;581;46012;-73
2022/12/02 08:53:53;;;;;;;;;16.25;14.50;;;;;16.52;70.15;101539.28;146613;617;46020;-72
2022/12/02 08:56:55;;;;;;;;;14.25;13.25;;;;;16.57;69.17;101542.94;146610;569;46013;-72
2022/12/02 08:59:55;;;;;;;;;15.25;12.25;;;;;16.59;69.40;101546.53;146614;612;46020;-71
2022/12/02 09:02:54;;;;;;;;;12.75;10.75;;;;;16.66;69.04;101547.66;146608;587;46016;-72
2022/12/02 09:05:49;;;;;;;;;11.00;11.00;;;;;16.76;69.33;101548.16;146610;593;47014;-70
2022/12/02 09:08:42;;;;;;;;;13.00;10.33;;;;;16.84;69.22;101537.94;146608;575;46016;-71
2022/12/02 09:11:34;;;;;;;;;12.00;11.00;;;;;16.90;68.04;101539.91;146613;567;46021;-70
2022/12/02 09:14:26;;;;;;;;;16.00;12.00;;;;;16.98;68.47;101541.13;146610;662;46915;-71
2022/12/02 09:17:18;;;;;;;;;12.00;10.00;;;;;17.11;69.72;101545.09;146611;603;46021;-71
2022/12/02 09:20:11;;;;;;;;;12.00;9.67;;;;;17.28;67.91;101541.34;146610;597;46016;-71
2022/12/02 09:23:03;;;;;;;;;9.00;7.67;;;;;17.44;68.40;101540.19;146613;596;47010;-69
2022/12/02 09:25:59;;;;;;;;;9.67;8.67;;;;;17.57;67.62;101538.87;146611;686;46017;-69
2022/12/02 09:29:01;;;;;;;;;9.50;9.00;;;;;17.74;66.08;101535.16;146618;563;46010;-70
2022/12/02 09:31:55;;;;;;;;;9.75;9.50;;;;;17.81;65.70;101539.78;146609;675;46017;-70
2022/12/02 09:35:01;;;;;;;;;9.67;9.00;;;;;15.16;66.64;101072.81;146612;597;46034;-71
2022/12/02 09:37:58;;;;;;;;;11.33;9.33;;;;;17.67;64.23;101525.28;146608;569;46016;-71
2022/12/02 09:41:00;;;;;;;;;9.00;9.00;;;;;17.72;65.72;101532.44;146612;627;46020;-68
2022/12/02 09:44:00;;;;;;;;;10.00;8.00;;;;;17.72;65.28;101535.06;146612;577;46012;-71
2022/12/02 09:47:03;;;;;;;;;9.00;6.00;;;;;17.74;64.53;101529.91;146615;624;46021;-70
2022/12/02 09:50:05;;;;;;;;;;;;;;;;;;;;;
2022/12/02 09:53:16;;;;;;;;;7.00;5.67;;;;;17.69;66.75;101528.84;146614;671;46031;-70
2022/12/02 09:56:33;;;;;;;;;4.00;4.00;;;;;17.67;64.43;101534.03;146609;576;46014;-71
2022/12/02 09:59:34;;;;;;;;;4.67;4.00;;;;;17.66;61.73;101526.09;146614;573;46020;-71
2022/12/02 10:02:53;;;;;;;;;5.33;5.33;;;;;15.11;67.02;101079.62;146610;612;46015;-71
2022/12/02 10:06:11;;;;;;;;;7.00;5.00;;;;;15.15;66.70;101076.28;146612;572;46022;-71
2022/12/02 10:09:13;;;;;;;;;5.00;4.33;;;;;17.76;64.20;101516.00;146613;582;46013;-71
2022/12/02 10:12:10;;;;;;;;;4.00;2.00;;;;;17.87;62.38;101524.25;146616;615;46010;-70
2022/12/02 10:15:06;;;;;;;;;5.00;3.67;;;;;17.87;63.58;101521.63;146609;641;46016;-71
2022/12/02 10:18:05;;;;;;;;;5.67;5.00;;;;;17.87;63.11;101526.88;146613;585;46021;-71
2022/12/02 10:21:03;;;;;;;;;5.67;5.00;;;;;17.80;63.14;101518.75;146610;613;46912;-71
2022/12/02 10:24:21;;;;;;;;;;;;;;;;;;;;;
2022/12/02 10:27:35;;;;;;;;;2.00;2.00;;;;;17.63;66.73;101521.66;146614;585;46035;-69
2022/12/02 10:30:31;;;;;;;;;6.33;6.33;;;;;17.47;65.22;101522.81;146615;609;46014;-70
2022/12/02 10:33:30;;;;;;;;;8.67;7.00;;;;;17.44;64.76;101509.59;146613;594;46916;-71
2022/12/02 10:36:42;;;;;;;;;7.00;7.00;;;;;17.54;67.76;101511.75;146617;587;46010;-71
2022/12/02 10:39:41;;;;;;;;;5.67;5.00;;;;;17.69;63.28;101511.34;146613;583;46016;-71
2022/12/02 10:42:33;;;;;;;;;9.00;7.00;;;;;17.75;63.58;101506.31;146615;575;46010;-70
2022/12/02 10:45:31;;;;;;;;;7.00;6.00;;;;;17.75;63.52;101501.06;146613;646;46016;-69
2022/12/02 10:48:35;;;;;;;;;6.33;5.67;;;;;17.79;65.78;101504.75;146616;659;46010;-70
2022/12/02 10:51:37;;;;;;;;;5.00;5.00;;;;;15.20;63.44;101058.16;146609;584;46016;-70
2022/12/02 10:54:48;;;;;;;;;5.33;5.33;;;;;15.29;60.87;101071.56;146614;645;46020;-71
2022/12/02 10:57:47;;;;;;;;;6.67;5.00;;;;;16.57;62.77;101299.47;146612;597;46016;-70
2022/12/02 11:00:53;;;;;;;;;4.33;4.33;;;;;17.76;63.32;101507.25;146612;614;46020;-70
2022/12/02 11:04:09;;;;;;;;;;;;;;;;;;;;;
2022/12/02 11:07:06;;;;;;;;;6.67;5.00;;;;;17.66;62.94;101505.13;146617;583;46020;-70
2022/12/02 11:10:13;;;;;;;;;8.00;6.00;;;;;17.62;61.38;101496.25;146611;583;46017;-70
2022/12/02 11:13:31;;;;;;;;;7.67;7.00;;;;;17.57;62.08;101500.47;146609;598;46010;-69
2022/12/02 11:17:13;;;;;;;;;8.33;6.67;;;;;15.09;62.45;101062.09;146604;581;46913;-70
2022/12/02 11:20:40;;;;;;;;;11.00;9.75;;;;;15.03;61.27;101067.97;146605;600;47020;-71
2022/12/02 11:23:35;;;;;;;;;7.00;7.00;;;;;17.43;61.37;101493.84;146604;564;46016;-71
2022/12/02 11:27:13;;;;;;;;;9.25;7.25;;;;;14.96;65.12;101065.97;146606;704;46021;-70
2022/12/02 11:30:48;;;;;;;;;8.00;6.33;;;;;15.02;59.48;101082.75;146603;564;46016;-71
2022/12/02 11:34:02;;;;;;;;;5.00;4.67;;;;;14.94;65.51;101052.84;146606;586;46014;-71
2022/12/02 11:37:32;;;;;;;;;5.67;4.67;;;;;15.11;63.93;101052.56;146604;598;46016;-69
2022/12/02 11:41:15;;;;;;;;;8.67;6.33;;;;;15.63;62.74;101125.97;146606;565;46021;-70
2022/12/02 11:44:38;;;;;;;;;6.00;5.67;;;;;17.93;64.71;101494.72;146604;624;46012;-70
2022/12/02 11:47:45;;;;;;;;;4.00;4.00;;;;;18.16;61.05;101500.72;146606;666;46026;-71
2022/12/02 11:51:02;;;;;;;;;3.00;3.00;;;;;15.84;62.01;101059.66;146606;583;46016;-71
2022/12/02 11:53:56;;;;;;;;;5.67;4.67;;;;;18.51;60.16;101488.72;146609;621;46021;-70
2022/12/02 11:57:01;;;;;;;;;6.00;4.00;;;;;18.68;59.94;101492.75;146602;604;46016;-70
2022/12/02 11:59:56;;;;;;;;;6.00;5.67;;;;;18.84;57.78;101501.13;146605;593;46020;-70
2022/12/02 12:03:16;;;;;;;;;;;;;;;;;;;;;
2022/12/02 12:06:51;;;;;;;;;;;;;;;;;;;;;
2022/12/02 12:10:12;;;;;;;;;6.00;4.67;;;;;18.87;58.67;101501.22;146601;678;46015;-69
2022/12/02 12:13:37;;;;;;;;;3.67;3.67;;;;;18.73;59.88;101510.44;146614;586;46010;-70
2022/12/02 12:16:46;;;;;;;;;7.00;5.67;;;;;16.02;56.18;101057.69;146611;608;46016;-72
2022/12/02 12:19:41;;;;;;;;;4.00;3.00;;;;;18.45;58.55;101496.41;146614;638;46020;-69
2022/12/02 12:22:43;;;;;;;;;6.00;4.00;;;;;18.55;61.01;101498.47;146607;657;46016;-70
2022/12/02 12:25:57;;;;;;;;;5.00;4.00;;;;;17.23;61.96;101233.66;146617;569;46010;-71
2022/12/02 12:28:58;;;;;;;;;6.00;6.00;;;;;18.96;60.33;101497.97;146609;618;46016;-71
2022/12/02 12:31:58;;;;;;;;;3.00;2.33;;;;;19.10;57.73;101491.41;146616;713;46010;-70
2022/12/02 12:34:56;;;;;;;;;6.33;6.33;;;;;19.37;59.67;101501.78;146607;597;47016;-70
2022/12/02 12:37:51;;;;;;;;;3.33;2.33;;;;;19.55;57.13;101507.53;146615;630;47010;-70
2022/12/02 12:40:49;;;;;;;;;2.00;2.00;;;;;19.57;56.93;101502.34;146612;629;46012;-71
2022/12/02 12:43:45;;;;;;;;;4.00;4.00;;;;;19.49;55.92;101503.84;146617;597;46010;-70
2022/12/02 12:46:40;;;;;;;;;3.00;3.00;;;;;19.46;57.63;101502.03;146610;604;46916;-70
2022/12/02 12:49:37;;;;;;;;;2.00;2.00;;;;;19.59;59.27;101498.00;146611;617;46020;-70
2022/12/02 12:52:52;;;;;;;;;;;;;;;;;;;;;
2022/12/02 12:56:09;;;;;;;;;2.00;2.00;;;;;19.84;54.98;101504.81;146613;613;46020;-69
2022/12/02 12:59:05;;;;;;;;;1.33;1.00;;;;;19.74;53.88;101497.53;146603;670;46016;-70
2022/12/02 13:02:00;;;;;;;;;3.00;1.33;;;;;19.53;54.36;101505.72;146615;569;46011;-71
2022/12/02 13:05:07;;;;;;;;;1.67;1.00;;;;;19.41;56.22;101502.75;146610;630;46016;-69
2022/12/02 13:08:09;;;;;;;;;2.00;1.00;;;;;19.65;57.61;101503.44;146614;694;46021;-70
2022/12/02 13:11:02;;;;;;;;;3.67;3.33;;;;;19.91;56.14;101504.16;146609;572;46034;-68
2022/12/02 13:13:57;;;;;;;;;3.00;1.67;;;;;20.16;54.19;101505.66;146613;618;46014;-71
2022/12/02 13:17:04;;;;;;;;;0.67;0.67;;;;;20.25;53.38;101508.50;146608;640;46016;-70
2022/12/02 13:19:59;;;;;;;;;2.00;1.00;;;;;20.23;53.45;101507.56;146612;580;46020;-69
2022/12/02 13:22:54;;;;;;;;;2.00;1.67;;;;;20.25;51.23;101499.72;146611;705;46013;-70
2022/12/02 13:25:49;;;;;;;;;2.67;2.33;;;;;18.15;50.88;101140.25;146617;582;46010;-70
2022/12/02 13:29:02;;;;;;;;;1.67;1.67;;;;;20.18;51.50;101509.19;146611;707;46016;-70
2022/12/02 13:32:06;;;;;;;;;3.33;1.33;;;;;20.23;53.37;101517.22;146613;618;46021;-69
2022/12/02 13:35:07;;;;;;;;;1.00;0.00;;;;;20.34;50.82;101514.81;146610;627;46016;-70
2022/12/02 13:38:15;;;;;;;;;1.00;0.00;;;;;20.32;53.60;101521.81;146613;585;46020;-70
2022/12/02 13:41:13;;;;;;;;;2.00;1.00;;;;;20.27;48.45;101517.31;146611;574;46016;-70
2022/12/02 13:44:09;;;;;;;;;1.00;1.00;;;;;20.06;53.82;101522.03;146616;703;46020;-70
2022/12/02 13:47:09;;;;;;;;;2.00;2.00;;;;;19.92;51.16;101526.97;146611;583;46915;-70
2022/12/02 13:50:11;;;;;;;;;7.67;5.67;;;;;19.76;54.73;101528.31;146611;600;46020;-70
2022/12/02 13:53:07;;;;;;;;;1.00;1.00;;;;;19.71;53.08;101527.28;146612;625;47012;-72
2022/12/02 13:56:11;;;;;;;;;0.33;0.33;;;;;19.74;55.12;101527.38;146615;733;46020;-73
2022/12/02 13:59:05;;;;;;;;;1.33;1.33;;;;;19.70;51.37;101525.53;146612;564;46017;-73
2022/12/02 14:02:03;;;;;;;;;0.00;0.00;;;;;19.67;53.60;101529.81;146615;602;45021;-72
2022/12/02 14:05:14;;;;;;;;;10.00;8.00;;;;;19.59;54.54;101527.84;146611;565;46915;-72
2022/12/02 14:08:10;;;;;;;;;1.00;1.00;;;;;19.55;52.46;101538.22;146617;615;46010;-72
2022/12/02 14:11:24;;;;;;;;;;;;;;;;;;;;;
2022/12/02 14:14:19;;;;;;;;;1.33;1.33;;;;;19.45;54.92;101526.56;146618;584;46010;-71
2022/12/02 14:17:11;;;;;;;;;0.67;0.33;;;;;19.32;51.45;101534.97;146608;756;46016;-72
2022/12/02 14:20:11;;;;;;;;;1.00;1.00;;;;;18.98;53.76;101531.34;146613;599;46010;-72
2022/12/02 14:23:10;;;;;;;;;1.67;1.67;;;;;18.62;54.72;101533.69;146611;607;46017;-71
2022/12/02 14:26:21;;;;;;;;;1.00;0.33;;;;;15.70;58.73;101080.97;146615;606;47010;-72
2022/12/02 14:29:25;;;;;;;;;4.33;3.33;;;;;18.09;59.08;101548.59;146612;586;46013;-71
2022/12/02 14:32:19;;;;;;;;;1.00;1.00;;;;;17.73;55.78;101534.25;146615;689;46020;-72
2022/12/02 14:35:21;;;;;;;;;14.50;8.75;;;;;17.49;59.56;101547.38;146610;569;46014;-71
2022/12/02 14:38:17;;;;;;;;;3.67;1.67;;;;;17.31;59.29;101541.47;146614;588;47010;-72